createdAt,value
2018-07-17T00:00:27.705Z,6.80
2018-07-17T00:01:03.353Z,7.00
2018-07-17T00:01:38.482Z,8.70
2018-07-17T00:02:13.824Z,8.50
2018-07-17T00:02:48.846Z,7.70
2018-07-17T00:03:24.153Z,7.30
2018-07-17T00:03:59.478Z,9.20
2018-07-17T00:04:34.869Z,8.40
2018-07-17T00:05:10.329Z,8.00
2018-07-17T00:05:46.124Z,8.50
2018-07-17T00:06:21.575Z,14.80
2018-07-17T00:06:56.810Z,15.20
2018-07-17T00:07:32.092Z,8.00
2018-07-17T00:08:07.332Z,7.70
2018-07-17T00:08:42.759Z,9.40
2018-07-17T00:09:18.079Z,6.80
2018-07-17T00:09:53.593Z,8.90
2018-07-17T00:10:29.027Z,10.20
2018-07-17T00:11:04.360Z,12.70
2018-07-17T00:11:39.766Z,9.50
2018-07-17T00:12:15.296Z,9.40
2018-07-17T00:12:50.641Z,8.90
2018-07-17T00:13:25.770Z,9.40
2018-07-17T00:14:00.883Z,8.00
2018-07-17T00:14:36.210Z,8.40
2018-07-17T00:15:11.669Z,8.60
2018-07-17T00:15:47.003Z,8.70
2018-07-17T00:16:22.112Z,8.00
2018-07-17T00:16:57.519Z,8.90
2018-07-17T00:17:33.096Z,9.70
2018-07-17T00:18:08.317Z,8.00
2018-07-17T00:18:43.830Z,6.80
2018-07-17T00:19:19.285Z,8.00
2018-07-17T00:19:54.886Z,7.50
2018-07-17T00:20:30.826Z,9.10
2018-07-17T00:21:06.143Z,10.70
2018-07-17T00:21:41.752Z,10.20
2018-07-17T00:22:17.067Z,8.30
2018-07-17T00:22:52.548Z,9.50
2018-07-17T00:23:28.183Z,11.20
2018-07-17T00:24:03.405Z,8.70
2018-07-17T00:24:40.142Z,7.10
2018-07-17T00:25:16.074Z,9.40
2018-07-17T00:25:51.757Z,8.90
2018-07-17T00:26:27.390Z,8.50
2018-07-17T00:27:02.504Z,7.80
2018-07-17T00:27:37.930Z,8.50
2018-07-17T00:28:13.343Z,9.00
2018-07-17T00:28:48.844Z,9.10
2018-07-17T00:29:24.066Z,8.40
2018-07-17T00:29:58.970Z,9.10
2018-07-17T00:30:34.193Z,8.90
2018-07-17T00:31:09.576Z,8.50
2018-07-17T00:31:45.082Z,9.10
2018-07-17T00:32:20.444Z,7.50
2018-07-17T00:32:55.737Z,9.70
2018-07-17T00:33:30.968Z,10.10
2018-07-17T00:34:06.355Z,10.80
2018-07-17T00:34:41.790Z,11.10
2018-07-17T00:35:16.921Z,7.70
2018-07-17T00:35:52.215Z,8.40
2018-07-17T00:36:27.660Z,9.80
2018-07-17T00:37:03.168Z,8.40
2018-07-17T00:37:38.379Z,7.00
2018-07-17T00:38:14.137Z,6.40
2018-07-17T00:38:49.829Z,9.90
2018-07-17T00:39:25.088Z,10.50
2018-07-17T00:40:00.823Z,8.70
2018-07-17T00:40:36.437Z,10.00
2018-07-17T00:41:12.056Z,9.30
2018-07-17T00:41:47.454Z,10.40
2018-07-17T00:42:23.069Z,11.90
2018-07-17T00:42:58.366Z,12.30
2018-07-17T00:43:33.493Z,8.90
2018-07-17T00:44:08.812Z,9.50
2018-07-17T00:44:44.534Z,9.60
2018-07-17T00:45:19.873Z,9.00
2018-07-17T00:45:55.163Z,9.20
2018-07-17T00:46:30.673Z,9.20
2018-07-17T00:47:06.005Z,8.30
2018-07-17T00:47:41.223Z,7.80
2018-07-17T00:48:16.846Z,11.50
2018-07-17T00:48:52.228Z,9.70
2018-07-17T00:49:27.558Z,9.80
2018-07-17T00:50:02.868Z,10.60
2018-07-17T00:50:38.209Z,11.90
2018-07-17T00:51:13.738Z,12.90
2018-07-17T00:51:48.933Z,10.80
2018-07-17T00:52:24.374Z,8.80
2018-07-17T00:52:59.573Z,8.40
2018-07-17T00:53:34.988Z,8.40
2018-07-17T00:54:10.136Z,11.90
2018-07-17T00:54:45.490Z,9.50
2018-07-17T00:55:21.079Z,10.60
2018-07-17T00:55:56.297Z,11.70
2018-07-17T00:56:31.744Z,9.80
2018-07-17T00:57:07.088Z,8.20
2018-07-17T00:57:42.546Z,8.50
2018-07-17T00:58:18.673Z,8.80
2018-07-17T00:58:53.832Z,11.10
2018-07-17T00:59:28.990Z,11.80
2018-07-17T01:00:04.451Z,9.70
2018-07-17T01:00:41.008Z,8.30
2018-07-17T01:01:16.257Z,9.70
2018-07-17T01:01:51.581Z,8.60
2018-07-17T01:02:26.938Z,9.10
2018-07-17T01:03:02.380Z,8.40
2018-07-17T01:03:38.139Z,7.80
2018-07-17T01:04:13.881Z,7.00
2018-07-17T01:04:49.570Z,8.60
2018-07-17T01:05:25.212Z,9.90
2018-07-17T01:06:00.437Z,9.20
2018-07-17T01:06:35.886Z,9.00
2018-07-17T01:07:11.116Z,9.90
2018-07-17T01:07:46.566Z,8.90
2018-07-17T01:08:22.289Z,7.40
2018-07-17T01:08:57.540Z,9.20
2018-07-17T01:09:32.996Z,7.90
2018-07-17T01:10:08.340Z,10.80
2018-07-17T01:10:44.374Z,8.80
2018-07-17T01:11:19.798Z,7.30
2018-07-17T01:11:55.238Z,8.50
2018-07-17T01:12:30.508Z,8.00
2018-07-17T01:13:05.733Z,8.80
2018-07-17T01:13:41.064Z,9.30
2018-07-17T01:14:16.386Z,10.00
2018-07-17T01:14:52.141Z,7.90
2018-07-17T01:15:27.467Z,7.50
2018-07-17T01:16:02.909Z,8.70
2018-07-17T01:16:38.498Z,7.90
2018-07-17T01:17:14.029Z,9.60
2018-07-17T01:17:49.378Z,9.50
2018-07-17T01:18:24.641Z,10.30
2018-07-17T01:18:59.862Z,12.20
2018-07-17T01:19:35.447Z,14.80
2018-07-17T01:20:11.132Z,13.20
2018-07-17T01:20:47.493Z,10.80
2018-07-17T01:21:23.235Z,11.40
2018-07-17T01:21:58.543Z,11.90
2018-07-17T01:22:33.946Z,9.80
2018-07-17T01:23:09.085Z,9.20
2018-07-17T01:23:44.627Z,8.10
2018-07-17T01:24:19.864Z,8.40
2018-07-17T01:24:55.233Z,9.70
2018-07-17T01:25:30.911Z,10.50
2018-07-17T01:26:06.347Z,10.20
2018-07-17T01:26:41.896Z,11.30
2018-07-17T01:27:17.389Z,10.20
2018-07-17T01:27:52.815Z,12.20
2018-07-17T01:28:28.132Z,12.70
2018-07-17T01:29:03.927Z,11.30
2018-07-17T01:29:39.193Z,8.70
2018-07-17T01:30:14.638Z,8.50
2018-07-17T01:30:49.948Z,10.80
2018-07-17T01:31:25.374Z,8.50
2018-07-17T01:32:01.061Z,9.20
2018-07-17T01:32:36.500Z,11.00
2018-07-17T01:33:11.990Z,12.70
2018-07-17T01:33:47.509Z,9.10
2018-07-17T01:34:22.716Z,9.40
2018-07-17T01:34:58.066Z,8.80
2018-07-17T01:35:33.495Z,8.60
2018-07-17T01:36:08.588Z,10.20
2018-07-17T01:36:44.198Z,9.80
2018-07-17T01:37:19.892Z,13.00
2018-07-17T01:37:55.229Z,12.00
2018-07-17T01:38:30.365Z,10.10
2018-07-17T01:39:05.964Z,9.40
2018-07-17T01:39:41.416Z,9.70
2018-07-17T01:40:16.727Z,9.20
2018-07-17T01:40:51.951Z,10.90
2018-07-17T01:41:27.684Z,11.60
2018-07-17T01:42:02.857Z,8.60
2018-07-17T01:42:38.069Z,12.50
2018-07-17T01:43:13.362Z,10.40
2018-07-17T01:43:48.480Z,7.20
2018-07-17T01:44:24.098Z,10.30
2018-07-17T01:44:59.611Z,14.40
2018-07-17T01:45:35.135Z,14.00
2018-07-17T01:46:10.382Z,10.80
2018-07-17T01:46:47.029Z,10.40
2018-07-17T01:47:22.452Z,9.50
2018-07-17T01:47:57.824Z,9.80
2018-07-17T01:48:33.178Z,12.20
2018-07-17T01:49:08.761Z,11.60
2018-07-17T01:49:44.071Z,9.50
2018-07-17T01:50:19.504Z,11.00
2018-07-17T01:50:55.229Z,9.10
2018-07-17T01:51:30.900Z,7.20
2018-07-17T01:52:06.032Z,8.20
2018-07-17T01:52:41.451Z,9.60
2018-07-17T01:53:16.772Z,8.90
2018-07-17T01:53:52.968Z,10.80
2018-07-17T01:54:28.155Z,11.30
2018-07-17T01:55:03.998Z,7.60
2018-07-17T01:55:39.517Z,9.30
2018-07-17T01:56:15.044Z,9.90
2018-07-17T01:56:50.612Z,9.50
2018-07-17T01:57:25.863Z,11.00
2018-07-17T01:58:01.454Z,8.80
2018-07-17T01:58:38.350Z,9.10
2018-07-17T01:59:13.638Z,9.10
2018-07-17T01:59:49.282Z,8.80
2018-07-17T02:00:25.759Z,10.50
2018-07-17T02:01:02.862Z,12.00
2018-07-17T02:01:39.461Z,9.90
2018-07-17T02:02:15.035Z,9.30
2018-07-17T02:02:51.026Z,10.00
2018-07-17T02:03:26.442Z,9.00
2018-07-17T02:04:02.600Z,7.90
2018-07-17T02:04:37.884Z,9.70
2018-07-17T02:05:13.431Z,9.60
2018-07-17T02:05:49.801Z,10.40
2018-07-17T02:06:27.151Z,12.20
2018-07-17T02:07:04.234Z,8.10
2018-07-17T02:07:39.403Z,9.50
2018-07-17T02:08:14.619Z,8.70
2018-07-17T02:08:50.943Z,8.90
2018-07-17T02:09:26.908Z,9.50
2018-07-17T02:10:03.222Z,9.70
2018-07-17T02:10:38.916Z,10.70
2018-07-17T02:11:17.486Z,10.30
2018-07-17T02:11:52.731Z,9.30
2018-07-17T02:12:28.703Z,9.00
2018-07-17T02:13:04.512Z,9.30
2018-07-17T02:13:39.641Z,9.70
2018-07-17T02:14:15.285Z,11.00
2018-07-17T02:14:50.641Z,10.60
2018-07-17T02:15:27.063Z,9.40
2018-07-17T02:16:02.638Z,9.50
2018-07-17T02:16:38.834Z,10.90
2018-07-17T02:17:15.142Z,9.90
2018-07-17T02:17:50.745Z,11.40
2018-07-17T02:18:26.177Z,10.90
2018-07-17T02:19:01.542Z,9.00
2018-07-17T02:19:37.544Z,8.90
2018-07-17T02:20:13.032Z,11.90
2018-07-17T02:20:49.724Z,9.40
2018-07-17T02:21:25.220Z,10.50
2018-07-17T02:22:00.427Z,9.20
2018-07-17T02:22:36.833Z,10.10
2018-07-17T02:23:12.800Z,10.60
2018-07-17T02:23:48.970Z,8.80
2018-07-17T02:24:25.018Z,8.30
2018-07-17T02:25:00.544Z,10.80
2018-07-17T02:25:36.953Z,11.30
2018-07-17T02:26:12.345Z,10.80
2018-07-17T02:26:48.246Z,10.00
2018-07-17T02:27:23.659Z,12.20
2018-07-17T02:27:59.292Z,9.30
2018-07-17T02:28:34.311Z,11.30
2018-07-17T02:29:09.805Z,9.10
2018-07-17T02:29:45.238Z,8.50
2018-07-17T02:30:21.257Z,9.50
2018-07-17T02:30:57.670Z,8.60
2018-07-17T02:31:33.078Z,10.20
2018-07-17T02:32:08.420Z,13.50
2018-07-17T02:32:44.732Z,9.70
2018-07-17T02:33:21.919Z,9.40
2018-07-17T02:33:57.630Z,9.20
2018-07-17T02:34:33.113Z,9.20
2018-07-17T02:35:08.649Z,10.10
2018-07-17T02:35:45.455Z,9.50
2018-07-17T02:36:21.239Z,9.10
2018-07-17T02:36:57.204Z,9.90
2018-07-17T02:37:33.002Z,9.70
2018-07-17T02:38:08.519Z,10.40
2018-07-17T02:38:43.749Z,12.70
2018-07-17T02:39:19.160Z,11.50
2018-07-17T02:39:54.603Z,9.30
2018-07-17T02:40:31.701Z,8.70
2018-07-17T02:41:06.930Z,9.20
2018-07-17T02:41:42.052Z,13.10
2018-07-17T02:42:18.282Z,13.80
2018-07-17T02:42:54.285Z,10.20
2018-07-17T02:43:30.153Z,8.40
2018-07-17T02:44:05.738Z,9.10
2018-07-17T02:44:41.065Z,10.40
2018-07-17T02:45:16.477Z,10.50
2018-07-17T02:45:55.889Z,8.80
2018-07-17T02:46:31.524Z,10.00
2018-07-17T02:47:06.883Z,10.70
2018-07-17T02:47:43.398Z,9.00
2018-07-17T02:48:20.089Z,9.20
2018-07-17T02:48:55.326Z,11.20
2018-07-17T02:49:31.138Z,9.50
2018-07-17T02:50:06.900Z,9.40
2018-07-17T02:50:44.410Z,13.20
2018-07-17T02:51:19.819Z,13.60
2018-07-17T02:51:55.384Z,12.30
2018-07-17T02:52:30.679Z,8.90
2018-07-17T02:53:06.791Z,11.00
2018-07-17T02:53:47.191Z,11.30
2018-07-17T02:54:23.685Z,10.70
2018-07-17T02:54:58.920Z,12.10
2018-07-17T02:55:34.251Z,12.80
2018-07-17T02:56:11.229Z,11.80
2018-07-17T02:56:46.557Z,8.80
2018-07-17T02:57:21.755Z,9.50
2018-07-17T02:57:57.295Z,9.90
2018-07-17T02:58:32.495Z,8.90
2018-07-17T02:59:07.736Z,9.50
2018-07-17T02:59:43.538Z,8.70
2018-07-17T03:00:20.459Z,8.80
2018-07-17T03:00:57.169Z,8.90
2018-07-17T03:01:32.469Z,11.20
2018-07-17T03:02:07.857Z,12.40
2018-07-17T03:02:43.462Z,10.50
2018-07-17T03:03:19.081Z,11.40
2018-07-17T03:03:54.535Z,14.00
2018-07-17T03:04:29.655Z,13.40
2018-07-17T03:05:06.758Z,16.30
2018-07-17T03:05:44.315Z,12.60
2018-07-17T03:06:19.580Z,9.20
2018-07-17T03:06:55.518Z,9.50
2018-07-17T03:07:32.104Z,10.40
2018-07-17T03:08:07.223Z,9.80
2018-07-17T03:08:43.207Z,10.40
2018-07-17T03:09:18.714Z,11.70
2018-07-17T03:09:54.280Z,8.60
2018-07-17T03:10:30.595Z,9.00
2018-07-17T03:11:06.144Z,9.00
2018-07-17T03:11:42.132Z,8.70
2018-07-17T03:12:17.449Z,9.30
2018-07-17T03:12:53.412Z,10.40
2018-07-17T03:13:28.649Z,10.60
2018-07-17T03:14:04.896Z,10.90
2018-07-17T03:14:40.691Z,11.20
2018-07-17T03:15:16.132Z,13.20
2018-07-17T03:15:51.924Z,10.80
2018-07-17T03:16:26.917Z,10.60
2018-07-17T03:17:02.298Z,9.90
2018-07-17T03:17:37.896Z,9.80
2018-07-17T03:18:13.267Z,10.90
2018-07-17T03:18:49.005Z,8.20
2018-07-17T03:19:25.309Z,11.00
2018-07-17T03:20:01.735Z,14.00
2018-07-17T03:20:37.715Z,11.90
2018-07-17T03:21:13.135Z,10.10
2018-07-17T03:21:50.353Z,10.10
2018-07-17T03:22:25.840Z,9.90
2018-07-17T03:23:01.289Z,9.40
2018-07-17T03:23:36.691Z,8.60
2018-07-17T03:24:12.212Z,7.90
2018-07-17T03:24:48.016Z,8.00
2018-07-17T03:25:23.545Z,9.10
2018-07-17T03:25:59.571Z,10.10
2018-07-17T03:26:35.085Z,9.00
2018-07-17T03:27:10.432Z,11.60
2018-07-17T03:27:47.946Z,10.70
2018-07-17T03:28:23.070Z,10.30
2018-07-17T03:28:59.290Z,11.20
2018-07-17T03:29:35.263Z,9.00
2018-07-17T03:30:10.710Z,8.30
2018-07-17T03:30:46.843Z,8.40
2018-07-17T03:31:22.889Z,8.30
2018-07-17T03:31:59.900Z,9.30
2018-07-17T03:32:36.101Z,9.50
2018-07-17T03:33:11.326Z,9.70
2018-07-17T03:33:47.661Z,9.60
2018-07-17T03:34:23.070Z,11.80
2018-07-17T03:34:58.322Z,9.50
2018-07-17T03:35:34.023Z,11.50
2018-07-17T03:36:09.384Z,17.10
2018-07-17T03:36:45.629Z,13.20
2018-07-17T03:37:20.826Z,9.00
2018-07-17T03:37:57.829Z,12.40
2018-07-17T03:38:33.337Z,12.30
2018-07-17T03:39:09.320Z,11.20
2018-07-17T03:39:46.392Z,11.40
2018-07-17T03:40:22.035Z,13.50
2018-07-17T03:40:57.931Z,12.00
2018-07-17T03:41:33.136Z,10.80
2018-07-17T03:42:10.398Z,9.70
2018-07-17T03:42:45.852Z,11.30
2018-07-17T03:43:21.642Z,9.70
2018-07-17T03:43:58.328Z,8.40
2018-07-17T03:44:33.449Z,8.40
2018-07-17T03:45:10.146Z,9.40
2018-07-17T03:45:45.883Z,10.10
2018-07-17T03:46:22.018Z,11.20
2018-07-17T03:46:57.994Z,12.10
2018-07-17T03:47:33.380Z,12.80
2018-07-17T03:48:08.811Z,10.50
2018-07-17T03:48:44.321Z,10.70
2018-07-17T03:49:20.113Z,11.40
2018-07-17T03:49:56.428Z,12.80
2018-07-17T03:50:33.305Z,13.00
2018-07-17T03:51:08.561Z,11.30
2018-07-17T03:51:44.570Z,10.80
2018-07-17T03:52:19.752Z,14.00
2018-07-17T03:52:55.269Z,13.50
2018-07-17T03:53:31.474Z,10.50
2018-07-17T03:54:07.200Z,10.60
2018-07-17T03:54:43.820Z,9.60
2018-07-17T03:55:19.647Z,11.50
2018-07-17T03:55:55.282Z,13.30
2018-07-17T03:56:34.112Z,12.50
2018-07-17T03:57:09.351Z,11.10
2018-07-17T03:57:45.011Z,12.40
2018-07-17T03:58:20.416Z,13.30
2018-07-17T03:58:56.823Z,11.80
2018-07-17T03:59:32.242Z,10.70
2018-07-17T04:00:07.596Z,10.90
2018-07-17T04:00:45.779Z,10.00
2018-07-17T04:01:22.335Z,10.40
2018-07-17T04:01:58.719Z,11.40
2018-07-17T04:02:34.074Z,11.60
2018-07-17T04:03:09.673Z,11.00
2018-07-17T04:03:45.000Z,14.10
2018-07-17T04:04:21.165Z,14.20
2018-07-17T04:04:57.641Z,11.00
2018-07-17T04:05:33.089Z,12.10
2018-07-17T04:06:08.243Z,11.00
2018-07-17T04:06:43.396Z,10.60
2018-07-17T04:07:18.922Z,10.50
2018-07-17T04:07:54.841Z,9.50
2018-07-17T04:08:30.548Z,10.60
2018-07-17T04:09:06.734Z,14.30
2018-07-17T04:09:42.036Z,13.70
2018-07-17T04:10:17.205Z,11.10
2018-07-17T04:10:53.015Z,11.80
2018-07-17T04:11:28.824Z,12.20
2018-07-17T04:12:04.152Z,14.00
2018-07-17T04:12:41.632Z,11.00
2018-07-17T04:13:17.181Z,10.10
2018-07-17T04:13:53.959Z,10.30
2018-07-17T04:14:31.307Z,9.90
2018-07-17T04:15:08.366Z,10.20
2018-07-17T04:15:44.178Z,10.10
2018-07-17T04:16:19.602Z,11.90
2018-07-17T04:16:55.044Z,13.00
2018-07-17T04:17:31.284Z,11.40
2018-07-17T04:18:07.377Z,9.90
2018-07-17T04:18:44.513Z,12.00
2018-07-17T04:19:20.619Z,10.70
2018-07-17T04:19:56.074Z,16.40
2018-07-17T04:20:32.222Z,16.20
2018-07-17T04:21:07.560Z,12.20
2018-07-17T04:21:42.966Z,8.90
2018-07-17T04:22:18.208Z,12.40
2018-07-17T04:22:53.446Z,13.70
2018-07-17T04:23:28.846Z,12.60
2018-07-17T04:24:04.694Z,14.60
2018-07-17T04:24:40.121Z,14.30
2018-07-17T04:25:16.031Z,11.50
2018-07-17T04:25:53.939Z,13.40
2018-07-17T04:26:29.844Z,14.40
2018-07-17T04:27:05.867Z,12.10
2018-07-17T04:27:41.995Z,11.60
2018-07-17T04:28:17.684Z,9.70
2018-07-17T04:28:53.090Z,10.60
2018-07-17T04:29:28.462Z,10.80
2018-07-17T04:30:04.963Z,11.90
2018-07-17T04:30:42.679Z,14.10
2018-07-17T04:31:19.341Z,17.10
2018-07-17T04:31:56.613Z,16.40
2018-07-17T04:32:32.568Z,16.00
2018-07-17T04:33:07.995Z,14.10
2018-07-17T04:33:44.788Z,12.80
2018-07-17T04:34:20.727Z,13.20
2018-07-17T04:34:57.070Z,11.80
2018-07-17T04:35:33.441Z,10.40
2018-07-17T04:36:09.238Z,11.90
2018-07-17T04:36:45.623Z,11.50
2018-07-17T04:37:21.541Z,11.00
2018-07-17T04:37:57.489Z,13.10
2018-07-17T04:38:32.776Z,14.90
2018-07-17T04:39:09.626Z,12.60
2018-07-17T04:39:45.284Z,12.10
2018-07-17T04:40:20.964Z,12.00
2018-07-17T04:40:56.865Z,12.00
2018-07-17T04:41:32.660Z,14.90
2018-07-17T04:42:08.390Z,15.50
2018-07-17T04:42:43.875Z,14.10
2018-07-17T04:43:19.441Z,15.60
2018-07-17T04:43:54.767Z,13.60
2018-07-17T04:44:30.550Z,15.10
2018-07-17T04:45:06.296Z,12.40
2018-07-17T04:45:41.611Z,11.70
2018-07-17T04:46:16.967Z,14.20
2018-07-17T04:46:52.662Z,13.40
2018-07-17T04:47:29.578Z,13.50
2018-07-17T04:48:06.020Z,17.00
2018-07-17T04:48:42.685Z,16.40
2018-07-17T04:49:19.225Z,9.50
2018-07-17T04:49:55.064Z,9.40
2018-07-17T04:50:30.781Z,11.10
2018-07-17T04:51:06.796Z,11.40
2018-07-17T04:51:42.837Z,10.10
2018-07-17T04:52:19.345Z,13.40
2018-07-17T04:52:55.010Z,13.10
2018-07-17T04:53:30.701Z,11.10
2018-07-17T04:54:06.004Z,12.00
2018-07-17T04:54:42.030Z,11.40
2018-07-17T04:55:17.397Z,10.10
2018-07-17T04:55:53.494Z,11.10
2018-07-17T04:56:29.180Z,11.90
2018-07-17T04:57:04.196Z,13.30
2018-07-17T04:57:39.750Z,12.40
2018-07-17T04:58:15.913Z,11.20
2018-07-17T04:58:52.724Z,11.30
2018-07-17T04:59:28.721Z,10.40
2018-07-17T05:00:04.220Z,8.80
2018-07-17T05:00:39.688Z,10.20
2018-07-17T05:01:15.205Z,10.30
2018-07-17T05:01:50.537Z,10.00
2018-07-17T05:02:25.947Z,10.50
2018-07-17T05:03:01.740Z,10.50
2018-07-17T05:03:37.561Z,10.50
2018-07-17T05:04:12.810Z,9.30
2018-07-17T05:04:48.751Z,9.70
2018-07-17T05:05:24.104Z,11.80
2018-07-17T05:05:59.477Z,10.30
2018-07-17T05:06:34.730Z,12.00
2018-07-17T05:07:10.154Z,10.10
2018-07-17T05:07:45.683Z,10.60
2018-07-17T05:08:22.001Z,11.10
2018-07-17T05:08:57.720Z,10.80
2018-07-17T05:09:32.943Z,8.10
2018-07-17T05:10:09.252Z,9.50
2018-07-17T05:10:45.196Z,9.80
2018-07-17T05:11:20.666Z,8.90
2018-07-17T05:11:56.869Z,7.40
2018-07-17T05:12:32.204Z,8.50
2018-07-17T05:13:08.196Z,7.30
2018-07-17T05:13:44.056Z,7.80
2018-07-17T05:14:19.180Z,10.30
2018-07-17T05:14:55.088Z,8.40
2018-07-17T05:15:30.537Z,9.10
2018-07-17T05:16:07.130Z,11.40
2018-07-17T05:16:42.248Z,11.70
2018-07-17T05:17:18.621Z,12.20
2018-07-17T05:17:54.216Z,11.40
2018-07-17T05:18:29.800Z,12.10
2018-07-17T05:19:05.440Z,9.80
2018-07-17T05:19:40.838Z,10.10
2018-07-17T05:20:16.503Z,10.00
2018-07-17T05:20:52.824Z,9.00
2018-07-17T05:21:29.473Z,9.60
2018-07-17T05:22:06.384Z,8.60
2018-07-17T05:22:42.063Z,9.80
2018-07-17T05:23:18.187Z,11.70
2018-07-17T05:23:54.749Z,12.20
2018-07-17T05:24:30.948Z,8.00
2018-07-17T05:25:06.601Z,7.70
2018-07-17T05:25:46.746Z,7.90
2018-07-17T05:26:23.307Z,8.60
2018-07-17T05:26:59.091Z,9.30
2018-07-17T05:27:34.511Z,11.60
2018-07-17T05:28:09.820Z,9.30
2018-07-17T05:28:45.362Z,7.90
2018-07-17T05:29:23.091Z,9.70
2018-07-17T05:29:58.923Z,8.60
2018-07-17T05:30:34.583Z,10.20
2018-07-17T05:31:09.994Z,7.80
2018-07-17T05:31:45.389Z,8.10
2018-07-17T05:32:21.013Z,9.70
2018-07-17T05:32:57.023Z,8.90
2018-07-17T05:33:32.370Z,8.10
2018-07-17T05:34:08.239Z,9.60
2018-07-17T05:34:45.900Z,10.00
2018-07-17T05:35:21.836Z,9.10
2018-07-17T05:35:58.606Z,7.90
2018-07-17T05:36:34.029Z,7.70
2018-07-17T05:37:09.397Z,7.90
2018-07-17T05:37:45.005Z,8.40
2018-07-17T05:38:20.147Z,6.50
2018-07-17T05:38:56.077Z,7.30
2018-07-17T05:39:31.705Z,8.00
2018-07-17T05:40:06.938Z,7.80
2018-07-17T05:40:43.164Z,8.20
2018-07-17T05:41:18.751Z,5.60
2018-07-17T05:41:54.062Z,7.70
2018-07-17T05:42:29.812Z,7.50
2018-07-17T05:43:05.501Z,6.90
2018-07-17T05:43:40.800Z,9.10
2018-07-17T05:44:16.027Z,9.10
2018-07-17T05:44:51.906Z,9.10
2018-07-17T05:45:27.457Z,7.30
2018-07-17T05:46:03.010Z,5.80
2018-07-17T05:46:38.340Z,6.80
2018-07-17T05:47:13.994Z,6.00
2018-07-17T05:47:50.045Z,5.60
2018-07-17T05:48:25.374Z,6.80
2018-07-17T05:49:02.472Z,7.50
2018-07-17T05:49:37.913Z,5.60
2018-07-17T05:50:14.696Z,6.40
2018-07-17T05:50:49.905Z,9.20
2018-07-17T05:51:25.536Z,7.30
2018-07-17T05:52:02.173Z,8.60
2018-07-17T05:52:37.616Z,6.50
2018-07-17T05:53:13.420Z,7.40
2018-07-17T05:53:48.641Z,7.00
2018-07-17T05:54:24.109Z,6.90
2018-07-17T05:54:59.325Z,8.10
2018-07-17T05:55:35.662Z,8.10
2018-07-17T05:56:11.802Z,8.20
2018-07-17T05:56:47.158Z,7.00
2018-07-17T05:57:22.691Z,6.90
2018-07-17T05:57:58.211Z,6.30
2018-07-17T05:58:34.738Z,5.60
2018-07-17T05:59:10.964Z,6.80
2018-07-17T05:59:46.550Z,7.90
2018-07-17T06:00:21.987Z,8.80
2018-07-17T06:01:00.244Z,7.40
2018-07-17T06:01:35.811Z,8.00
2018-07-17T06:02:12.783Z,7.50
2018-07-17T06:02:48.344Z,7.10
2018-07-17T06:03:24.855Z,8.30
2018-07-17T06:04:00.671Z,6.80
2018-07-17T06:04:37.158Z,9.30
2018-07-17T06:05:12.492Z,8.80
2018-07-17T06:05:49.435Z,7.20
2018-07-17T06:06:24.970Z,8.40
2018-07-17T06:07:00.280Z,8.00
2018-07-17T06:07:36.525Z,5.90
2018-07-17T06:08:11.955Z,6.30
2018-07-17T06:08:48.137Z,10.00
2018-07-17T06:09:23.938Z,9.00
2018-07-17T06:10:00.358Z,7.00
2018-07-17T06:10:36.287Z,6.60
2018-07-17T06:11:11.906Z,6.40
2018-07-17T06:11:47.146Z,5.30
2018-07-17T06:12:22.797Z,6.80
2018-07-17T06:12:59.107Z,8.20
2018-07-17T06:13:34.568Z,5.80
2018-07-17T06:14:10.472Z,6.20
2018-07-17T06:14:46.002Z,7.90
2018-07-17T06:15:21.342Z,6.10
2018-07-17T06:15:57.067Z,8.70
2018-07-17T06:16:32.593Z,7.90
2018-07-17T06:17:07.800Z,7.10
2018-07-17T06:17:43.431Z,7.30
2018-07-17T06:18:19.195Z,6.20
2018-07-17T06:18:56.447Z,9.80
2018-07-17T06:19:31.909Z,7.90
2018-07-17T06:20:07.697Z,8.20
2018-07-17T06:20:44.998Z,7.20
2018-07-17T06:21:20.103Z,9.60
2018-07-17T06:21:55.494Z,8.80
2018-07-17T06:22:31.013Z,7.80
2018-07-17T06:23:06.552Z,6.70
2018-07-17T06:23:42.022Z,5.50
2018-07-17T06:24:17.515Z,5.60
2018-07-17T06:24:53.057Z,7.30
2018-07-17T06:25:28.403Z,8.10
2018-07-17T06:26:04.015Z,7.90
2018-07-17T06:26:39.650Z,7.80
2018-07-17T06:27:14.943Z,12.00
2018-07-17T06:27:50.466Z,11.40
2018-07-17T06:28:25.977Z,8.50
2018-07-17T06:29:01.675Z,8.00
2018-07-17T06:29:36.908Z,7.30
2018-07-17T06:30:12.256Z,7.50
2018-07-17T06:30:47.678Z,8.90
2018-07-17T06:31:22.981Z,11.10
2018-07-17T06:31:59.325Z,11.00
2018-07-17T06:32:34.649Z,9.40
2018-07-17T06:33:09.972Z,8.20
2018-07-17T06:33:46.013Z,6.20
2018-07-17T06:34:21.333Z,8.40
2018-07-17T06:34:56.673Z,11.30
2018-07-17T06:35:32.311Z,8.20
2018-07-17T06:36:07.710Z,7.90
2018-07-17T06:36:43.207Z,7.20
2018-07-17T06:37:18.645Z,7.10
2018-07-17T06:37:54.083Z,10.20
2018-07-17T06:38:29.499Z,9.40
2018-07-17T06:39:05.922Z,9.70
2018-07-17T06:39:41.383Z,11.80
2018-07-17T06:40:16.814Z,9.20
2018-07-17T06:40:54.547Z,8.90
2018-07-17T06:41:30.227Z,7.30
2018-07-17T06:42:09.055Z,8.00
2018-07-17T06:42:44.260Z,7.90
2018-07-17T06:43:19.565Z,8.40
2018-07-17T06:43:54.785Z,6.40
2018-07-17T06:44:30.253Z,5.60
2018-07-17T06:45:05.742Z,6.40
2018-07-17T06:45:44.392Z,7.70
2018-07-17T06:46:19.591Z,7.30
2018-07-17T06:46:55.016Z,8.20
2018-07-17T06:47:30.413Z,6.50
2018-07-17T06:48:05.854Z,7.10
2018-07-17T06:48:41.593Z,6.60
2018-07-17T06:49:16.842Z,6.10
2018-07-17T06:52:31.318Z,7.80
2018-07-17T06:53:06.520Z,7.50
2018-07-17T06:53:42.243Z,5.30
2018-07-17T06:54:17.816Z,5.60
2018-07-17T06:54:55.535Z,6.50
2018-07-17T06:55:30.934Z,7.70
2018-07-17T06:56:06.389Z,6.80
2018-07-17T06:56:41.710Z,5.90
2018-07-17T06:57:17.204Z,5.20
2018-07-17T06:57:52.707Z,5.40
2018-07-17T06:58:28.185Z,6.60
2018-07-17T06:59:03.527Z,6.20
2018-07-17T06:59:39.148Z,6.50
2018-07-17T07:00:14.690Z,5.20
2018-07-17T07:00:51.786Z,5.70
2018-07-17T07:01:28.284Z,9.50
2018-07-17T07:02:03.700Z,8.40
2018-07-17T07:02:39.114Z,5.40
2018-07-17T07:03:14.329Z,4.70
2018-07-17T07:03:49.569Z,5.70
2018-07-17T07:04:25.054Z,6.30
2018-07-17T07:05:00.401Z,6.50
2018-07-17T07:05:35.811Z,6.70
2018-07-17T07:06:11.013Z,7.10
2018-07-17T07:06:47.638Z,7.10
2018-07-17T07:07:24.116Z,5.40
2018-07-17T07:07:59.571Z,7.20
2018-07-17T07:08:35.013Z,9.80
2018-07-17T07:09:10.444Z,9.70
2018-07-17T07:09:47.357Z,7.60
2018-07-17T07:10:22.461Z,6.80
2018-07-17T07:10:57.796Z,6.30
2018-07-17T07:11:32.867Z,8.60
2018-07-17T07:12:08.285Z,8.60
2018-07-17T07:12:43.637Z,6.90
2018-07-17T07:13:19.438Z,8.40
2018-07-17T07:13:55.081Z,5.90
2018-07-17T07:14:30.626Z,6.40
2018-07-17T07:15:07.359Z,11.10
2018-07-17T07:15:44.460Z,11.60
2018-07-17T07:16:21.482Z,7.00
2018-07-17T07:16:57.113Z,8.80
2018-07-17T07:17:32.594Z,7.20
2018-07-17T07:18:08.226Z,8.80
2018-07-17T07:18:43.440Z,7.10
2018-07-17T07:19:18.754Z,5.50
2018-07-17T07:19:54.017Z,6.30
2018-07-17T07:20:29.315Z,5.80
2018-07-17T07:21:04.740Z,5.00
2018-07-17T07:21:40.159Z,4.60
2018-07-17T07:22:15.562Z,5.20
2018-07-17T07:22:51.974Z,8.00
2018-07-17T07:23:27.440Z,8.50
2018-07-17T07:24:02.694Z,9.30
2018-07-17T07:24:38.241Z,8.60
2018-07-17T07:25:13.553Z,5.90
2018-07-17T07:25:50.391Z,5.80
2018-07-17T07:26:26.087Z,7.10
2018-07-17T07:27:02.632Z,6.20
2018-07-17T07:27:37.950Z,7.70
2018-07-17T07:28:14.541Z,7.50
2018-07-17T07:28:49.972Z,9.10
2018-07-17T07:29:25.369Z,8.10
2018-07-17T07:30:00.692Z,7.00
2018-07-17T07:30:36.241Z,7.70
2018-07-17T07:31:12.346Z,6.70
2018-07-17T07:31:48.506Z,5.50
2018-07-17T07:32:23.696Z,5.90
2018-07-17T07:32:58.919Z,6.80
2018-07-17T07:33:34.653Z,8.80
2018-07-17T07:34:10.048Z,9.70
2018-07-17T07:34:45.409Z,9.00
2018-07-17T07:35:20.866Z,7.40
2018-07-17T07:35:56.077Z,9.90
2018-07-17T07:36:32.568Z,6.80
2018-07-17T07:37:07.888Z,7.40
2018-07-17T07:37:43.349Z,9.50
2018-07-17T07:38:18.664Z,9.90
2018-07-17T07:38:55.198Z,9.60
2018-07-17T07:39:30.839Z,9.20
2018-07-17T07:40:06.284Z,7.10
2018-07-17T07:40:41.825Z,6.00
2018-07-17T07:41:17.511Z,7.70
2018-07-17T07:41:53.173Z,8.10
2018-07-17T07:42:28.614Z,6.20
2018-07-17T07:43:05.421Z,4.70
2018-07-17T07:43:41.173Z,4.40
2018-07-17T07:44:18.075Z,4.60
2018-07-17T07:44:53.822Z,5.80
2018-07-17T07:45:29.635Z,5.20
2018-07-17T07:46:06.915Z,5.00
2018-07-17T07:46:43.221Z,4.50
2018-07-17T07:47:18.440Z,5.80
2018-07-17T07:47:53.677Z,6.00
2018-07-17T07:48:28.773Z,5.10
2018-07-17T07:49:04.199Z,4.60
2018-07-17T07:49:39.391Z,3.80
2018-07-17T07:50:14.535Z,4.20
2018-07-17T07:50:52.392Z,5.80
2018-07-17T07:51:27.710Z,4.10
2018-07-17T07:52:02.938Z,3.90
2018-07-17T07:52:38.443Z,7.80